Time;durP1;ratioP1;P1;durP2;ratioP2;P2;SDS_P1;SDS_P2;PMS_P1;PMS_P2;Temp;Humidity;BMP_temperature;BMP_pressure;BME280_temperature;BME280_humidity;BME280_pressure;Samples;Min_cycle;Max_cycle;Signal;HPM_P1;HPM_P2
2023/04/15 00:00:10;;;;;;;7.23;4.03;;;5.40;99.90;;;;;;5104417;28;20032;-79
2023/04/15 00:02:36;;;;;;;9.70;4.00;;;5.40;99.90;;;;;;5103953;28;20039;-79
2023/04/15 00:05:02;;;;;;;10.50;3.97;;;5.40;99.90;;;;;;5104667;28;20031;-79
2023/04/15 00:07:28;;;;;;;8.63;3.70;;;5.40;99.90;;;;;;5104761;28;20020;-80
2023/04/15 00:09:56;;;;;;;9.13;3.73;;;5.40;99.90;;;;;;5103660;28;20107;-79
2023/04/15 00:12:22;;;;;;;6.07;3.53;;;5.40;99.90;;;;;;5104163;28;20030;-79
2023/04/15 00:14:48;;;;;;;12.37;4.33;;;5.40;99.90;;;;;;5107610;28;20039;-79
2023/04/15 00:17:14;;;;;;;8.50;3.50;;;5.40;99.90;;;;;;5108042;28;20067;-80
2023/04/15 00:19:40;;;;;;;8.90;3.90;;;5.30;99.90;;;;;;5107472;28;21174;-79
2023/04/15 00:22:06;;;;;;;9.37;3.87;;;5.40;99.90;;;;;;5106561;28;20039;-80
2023/04/15 00:24:32;;;;;;;8.47;3.70;;;5.30;99.90;;;;;;5108115;28;20019;-80
2023/04/15 00:26:58;;;;;;;5.60;3.47;;;5.30;99.90;;;;;;5107531;28;20434;-79
2023/04/15 00:29:24;;;;;;;9.60;3.90;;;5.30;99.90;;;;;;5106334;28;20035;-79
2023/04/15 00:31:50;;;;;;;9.63;4.17;;;5.30;99.90;;;;;;5107332;28;20026;-80
2023/04/15 00:34:16;;;;;;;9.90;3.70;;;5.30;99.90;;;;;;5105931;28;20031;-79
2023/04/15 00:36:41;;;;;;;7.53;3.60;;;5.30;99.90;;;;;;5106572;28;20080;-80
2023/04/15 00:39:07;;;;;;;7.33;3.60;;;5.30;99.90;;;;;;5103718;28;20023;-79
2023/04/15 00:41:33;;;;;;;11.27;4.40;;;5.30;99.90;;;;;;5105602;28;20032;-80
2023/04/15 00:44:01;;;;;;;10.43;4.07;;;5.30;99.90;;;;;;5105934;28;20032;-79
2023/04/15 00:46:29;;;;;;;9.30;3.80;;;5.30;99.90;;;;;;5105668;28;20556;-79
2023/04/15 00:48:55;;;;;;;12.53;4.43;;;5.30;99.90;;;;;;5104245;28;20039;-80
2023/04/15 00:51:21;;;;;;;9.63;4.30;;;5.30;99.90;;;;;;5103073;28;20039;-79
2023/04/15 00:53:46;;;;;;;8.70;4.30;;;5.30;99.90;;;;;;5102577;28;20043;-79
2023/04/15 00:56:13;;;;;;;9.50;4.33;;;5.30;99.90;;;;;;5102728;28;20076;-79
2023/04/15 00:58:38;;;;;;;10.50;4.13;;;5.30;99.90;;;;;;5103118;28;20051;-79
2023/04/15 01:01:04;;;;;;;10.83;4.93;;;5.30;99.90;;;;;;5101661;28;20063;-79
2023/04/15 01:03:30;;;;;;;15.13;4.60;;;5.30;99.90;;;;;;5099697;28;20722;-79
2023/04/15 01:05:58;;;;;;;10.40;4.60;;;5.30;99.90;;;;;;5100340;28;20035;-79
2023/04/15 01:08:30;;;;;;;7.87;4.57;;;5.20;99.90;;;;;;5099304;28;20011;-79
2023/04/15 01:10:57;;;;;;;10.23;4.07;;;5.30;99.90;;;;;;5098514;28;20166;-79
2023/04/15 01:13:23;;;;;;;8.00;4.17;;;5.30;99.90;;;;;;5096114;28;20035;-79
2023/04/15 01:15:50;;;;;;;9.57;4.37;;;5.30;99.90;;;;;;5093398;28;20024;-79
2023/04/15 01:18:17;;;;;;;9.63;3.90;;;5.20;99.90;;;;;;5092489;28;20042;-79
2023/04/15 01:20:43;;;;;;;8.53;4.63;;;5.20;99.90;;;;;;5090310;28;20028;-80
2023/04/15 01:23:09;;;;;;;10.67;4.87;;;5.20;99.90;;;;;;5091611;28;20076;-79
2023/04/15 01:25:34;;;;;;;7.80;4.50;;;5.20;99.90;;;;;;5104309;28;20020;-79
2023/04/15 01:28:01;;;;;;;8.63;5.20;;;5.20;99.90;;;;;;5105358;28;20028;-80
2023/04/15 01:30:26;;;;;;;8.80;5.50;;;5.20;99.90;;;;;;5105349;28;20035;-80
2023/04/15 01:32:52;;;;;;;12.73;5.30;;;5.20;99.90;;;;;;5105311;28;21779;-79
2023/04/15 01:35:18;;;;;;;10.30;5.13;;;5.20;99.90;;;;;;5105910;28;20031;-79
2023/04/15 01:37:45;;;;;;;13.47;5.40;;;5.10;99.90;;;;;;5105370;28;20137;-79
2023/04/15 01:40:10;;;;;;;9.23;4.73;;;5.10;99.90;;;;;;5104224;28;20050;-79
2023/04/15 01:42:37;;;;;;;9.03;5.33;;;5.20;99.90;;;;;;5104716;28;21480;-80
2023/04/15 01:45:03;;;;;;;10.83;5.10;;;5.10;99.90;;;;;;5104420;28;20426;-79
2023/04/15 01:47:28;;;;;;;12.07;4.90;;;5.10;99.90;;;;;;5104053;28;20036;-79
2023/04/15 01:49:55;;;;;;;7.57;4.53;;;5.10;99.90;;;;;;5104365;28;20016;-79
2023/04/15 01:52:20;;;;;;;7.13;4.47;;;5.10;99.90;;;;;;5105502;28;21729;-79
2023/04/15 01:54:46;;;;;;;7.53;4.90;;;5.10;99.90;;;;;;5105708;28;20054;-79
2023/04/15 01:57:12;;;;;;;8.43;4.60;;;5.10;99.90;;;;;;5105396;28;20032;-79
2023/04/15 01:59:37;;;;;;;9.93;4.77;;;5.10;99.90;;;;;;5105082;28;20028;-79
2023/04/15 02:02:04;;;;;;;9.70;4.47;;;5.10;99.90;;;;;;5105184;28;20036;-79
2023/04/15 02:04:29;;;;;;;6.83;4.50;;;5.10;99.90;;;;;;5106414;28;20665;-79
2023/04/15 02:06:55;;;;;;;8.17;5.13;;;5.10;99.90;;;;;;5104993;28;20061;-79
2023/04/15 02:09:21;;;;;;;7.43;4.83;;;5.10;99.90;;;;;;5104718;28;20052;-78
2023/04/15 02:11:47;;;;;;;9.10;5.27;;;5.10;99.90;;;;;;5106673;28;20031;-79
2023/04/15 02:14:13;;;;;;;12.17;5.00;;;5.10;99.90;;;;;;5103403;28;20049;-79
2023/04/15 02:16:38;;;;;;;10.30;4.63;;;5.10;99.90;;;;;;5104494;28;20035;-79
2023/04/15 02:19:04;;;;;;;7.47;4.80;;;5.10;99.90;;;;;;5103028;28;20043;-79
2023/04/15 02:21:29;;;;;;;8.40;4.20;;;5.10;99.90;;;;;;5103135;28;20032;-79
2023/04/15 02:23:56;;;;;;;11.63;5.27;;;5.10;99.90;;;;;;5104189;28;20031;-79
2023/04/15 02:26:21;;;;;;;11.57;5.03;;;5.10;99.90;;;;;;5103620;28;20027;-79
2023/04/15 02:28:48;;;;;;;7.80;4.87;;;5.10;99.90;;;;;;5103410;28;21039;-79
2023/04/15 02:31:13;;;;;;;9.83;5.33;;;5.10;99.90;;;;;;5103441;28;20032;-79
2023/04/15 02:33:39;;;;;;;10.03;4.93;;;5.10;99.90;;;;;;5102079;28;20028;-79
2023/04/15 02:36:06;;;;;;;10.20;4.83;;;5.10;99.90;;;;;;5102468;28;20040;-79
2023/04/15 02:38:32;;;;;;;7.93;4.63;;;5.10;99.90;;;;;;5102983;28;20024;-79
2023/04/15 02:40:57;;;;;;;10.13;5.17;;;5.10;99.90;;;;;;5102003;28;20032;-79
2023/04/15 02:43:23;;;;;;;8.83;5.10;;;5.10;99.90;;;;;;5100790;28;20030;-79
2023/04/15 02:45:50;;;;;;;9.23;5.37;;;5.10;99.90;;;;;;5101095;28;20028;-79
2023/04/15 02:48:17;;;;;;;9.93;5.40;;;5.00;99.90;;;;;;5101628;28;20024;-79
2023/04/15 02:50:43;;;;;;;10.73;5.27;;;5.00;99.90;;;;;;5099935;28;20020;-79
2023/04/15 02:53:08;;;;;;;8.17;4.87;;;5.10;99.90;;;;;;5082772;28;20028;-79
2023/04/15 02:55:34;;;;;;;8.40;4.57;;;5.00;99.90;;;;;;5103097;28;20028;-80
2023/04/15 02:58:00;;;;;;;9.43;4.33;;;5.00;99.90;;;;;;5102480;28;20035;-79
2023/04/15 03:00:26;;;;;;;7.83;4.43;;;5.00;99.90;;;;;;5099655;28;20031;-79
2023/04/15 03:02:57;;;;;;;8.73;4.77;;;5.00;99.90;;;;;;5100859;28;20039;-79
2023/04/15 03:05:24;;;;;;;11.23;5.20;;;5.10;99.90;;;;;;5102608;28;20024;-79
2023/04/15 03:07:50;;;;;;;7.60;4.10;;;5.00;99.90;;;;;;5103414;28;20047;-79
2023/04/15 03:10:16;;;;;;;7.53;4.13;;;5.00;99.90;;;;;;5103006;28;20101;-79
2023/04/15 03:12:41;;;;;;;6.53;3.87;;;5.00;99.90;;;;;;5102274;28;20036;-79
2023/04/15 03:15:08;;;;;;;7.50;3.97;;;5.00;99.90;;;;;;5102923;28;20082;-79
2023/04/15 03:17:33;;;;;;;10.03;4.00;;;5.10;99.90;;;;;;5102237;28;20099;-79
2023/04/15 03:20:04;;;;;;;6.67;3.73;;;5.00;99.90;;;;;;5099687;28;20055;-79
2023/04/15 03:22:33;;;;;;;8.57;4.47;;;5.00;99.90;;;;;;5100872;28;20129;-79
2023/04/15 03:24:58;;;;;;;8.83;4.03;;;5.00;99.90;;;;;;5102039;28;20031;-79
2023/04/15 03:27:25;;;;;;;13.47;4.67;;;5.00;99.90;;;;;;5099143;28;20034;-79
2023/04/15 03:29:50;;;;;;;11.27;5.57;;;5.00;99.90;;;;;;5100896;28;20059;-80
2023/04/15 03:32:17;;;;;;;8.67;4.63;;;5.00;99.90;;;;;;5101784;28;20925;-79
2023/04/15 03:34:42;;;;;;;7.80;4.07;;;5.00;99.90;;;;;;5102300;28;20051;-79
2023/04/15 03:37:08;;;;;;;11.77;4.80;;;5.00;99.90;;;;;;5102368;28;20031;-79
2023/04/15 03:39:34;;;;;;;9.97;4.07;;;4.90;99.90;;;;;;5102933;28;20110;-79
2023/04/15 03:42:00;;;;;;;11.23;4.30;;;4.90;99.90;;;;;;5104001;28;20036;-79
2023/04/15 03:44:26;;;;;;;10.83;4.10;;;4.90;99.90;;;;;;5103496;28;20028;-79
2023/04/15 03:46:52;;;;;;;8.90;3.97;;;4.90;99.90;;;;;;5102861;28;20488;-79
2023/04/15 03:49:18;;;;;;;9.07;3.70;;;5.00;99.90;;;;;;5105603;28;20035;-79
2023/04/15 03:51:44;;;;;;;10.77;4.50;;;4.90;99.90;;;;;;5107320;28;20055;-79
2023/04/15 03:54:10;;;;;;;6.60;3.93;;;5.00;99.90;;;;;;5106773;28;20024;-79
2023/04/15 03:56:36;;;;;;;8.23;4.53;;;4.90;99.90;;;;;;5105541;28;20118;-79
2023/04/15 03:59:01;;;;;;;8.93;4.53;;;4.90;99.90;;;;;;5105776;28;20024;-79
2023/04/15 04:01:27;;;;;;;8.27;3.67;;;4.90;99.90;;;;;;5105704;28;20929;-79
2023/04/15 04:03:52;;;;;;;6.63;4.00;;;4.90;99.90;;;;;;5106058;28;20092;-79
2023/04/15 04:06:18;;;;;;;11.47;4.67;;;4.90;99.90;;;;;;5105705;28;20027;-79
2023/04/15 04:08:44;;;;;;;8.60;4.37;;;4.90;99.90;;;;;;5106082;28;20026;-80
2023/04/15 04:11:10;;;;;;;10.73;4.33;;;4.90;99.90;;;;;;5103659;28;20096;-79
2023/04/15 04:13:35;;;;;;;9.90;3.97;;;4.90;99.90;;;;;;5104577;28;20081;-79
2023/04/15 04:16:03;;;;;;;5.50;3.43;;;4.90;99.90;;;;;;5104022;28;20863;-79
2023/04/15 04:18:30;;;;;;;6.67;3.50;;;4.90;99.90;;;;;;5105739;28;21451;-80
2023/04/15 04:20:55;;;;;;;8.30;3.97;;;4.90;99.90;;;;;;5105057;28;20144;-79
2023/04/15 04:23:21;;;;;;;9.23;3.97;;;4.90;99.90;;;;;;5104538;28;20040;-80
2023/04/15 04:25:46;;;;;;;8.87;3.73;;;4.90;99.90;;;;;;5104488;28;20047;-80
2023/04/15 04:28:12;;;;;;;8.80;3.47;;;4.90;99.90;;;;;;5104837;28;20088;-79
2023/04/15 04:30:38;;;;;;;7.77;3.50;;;4.90;99.90;;;;;;5103475;28;20036;-79
2023/04/15 04:33:04;;;;;;;7.27;3.70;;;4.90;99.90;;;;;;5104040;28;20028;-79
2023/04/15 04:35:29;;;;;;;8.33;4.10;;;4.80;99.90;;;;;;5105270;28;21092;-79
2023/04/15 04:37:55;;;;;;;9.43;4.00;;;4.90;99.90;;;;;;5103666;28;20028;-80
2023/04/15 04:40:21;;;;;;;10.10;3.90;;;4.90;99.90;;;;;;5101807;28;20047;-79
2023/04/15 04:42:46;;;;;;;7.13;3.87;;;4.90;99.90;;;;;;5102002;28;20072;-79
2023/04/15 04:45:12;;;;;;;10.33;3.73;;;4.90;99.90;;;;;;5102431;28;20099;-79
2023/04/15 04:47:37;;;;;;;9.57;3.60;;;4.80;99.90;;;;;;5102317;28;20020;-80
2023/04/15 04:50:03;;;;;;;8.37;3.33;;;4.80;99.90;;;;;;5098670;28;20039;-80
2023/04/15 04:52:29;;;;;;;6.27;3.47;;;4.90;99.90;;;;;;5101652;28;20032;-80
2023/04/15 04:54:55;;;;;;;9.03;3.27;;;4.90;99.90;;;;;;5100768;28;20027;-80
2023/04/15 04:57:20;;;;;;;7.60;3.60;;;4.90;99.90;;;;;;5099670;28;20028;-79
2023/04/15 04:59:46;;;;;;;10.13;3.30;;;4.90;99.90;;;;;;5095339;28;20585;-80
2023/04/15 05:02:11;;;;;;;10.03;3.53;;;4.80;99.90;;;;;;5092570;28;20094;-79
2023/04/15 05:04:37;;;;;;;6.17;2.70;;;4.90;99.90;;;;;;5091144;28;20035;-79
2023/04/15 05:07:03;;;;;;;5.60;2.93;;;4.90;99.90;;;;;;5090967;28;20024;-79
2023/04/15 05:09:31;;;;;;;5.80;2.73;;;4.90;99.90;;;;;;5095524;28;20028;-79
2023/04/15 05:11:56;;;;;;;7.03;3.60;;;4.90;99.90;;;;;;5104255;28;20023;-79
2023/04/15 05:14:22;;;;;;;7.23;3.97;;;4.90;99.90;;;;;;5104048;28;20027;-79
2023/04/15 05:16:47;;;;;;;7.60;3.43;;;5.00;99.90;;;;;;5102550;28;20085;-80
2023/04/15 05:19:13;;;;;;;6.43;2.97;;;5.00;99.90;;;;;;5104475;28;20036;-79
2023/04/15 05:21:38;;;;;;;10.40;3.40;;;5.00;99.90;;;;;;5103536;28;20081;-79
2023/04/15 05:24:04;;;;;;;5.93;3.50;;;5.00;99.90;;;;;;5104143;28;20052;-79
2023/04/15 05:26:30;;;;;;;11.87;3.00;;;5.10;99.90;;;;;;5098368;28;20028;-71
2023/04/15 05:28:56;;;;;;;9.10;2.90;;;5.10;99.90;;;;;;5090707;28;20061;-79
2023/04/15 05:31:21;;;;;;;7.50;2.40;;;5.10;99.90;;;;;;5101434;28;20067;-79
2023/04/15 05:33:47;;;;;;;4.43;2.13;;;5.20;99.90;;;;;;5101058;28;20996;-80
2023/04/15 05:36:12;;;;;;;7.50;2.30;;;5.20;99.90;;;;;;5101092;28;20150;-79
2023/04/15 05:38:38;;;;;;;7.87;2.60;;;5.30;99.90;;;;;;5101356;28;20016;-79
2023/04/15 05:41:04;;;;;;;5.13;2.43;;;5.30;99.90;;;;;;5103993;28;20069;-79
2023/04/15 05:43:29;;;;;;;5.13;2.40;;;5.40;99.90;;;;;;5104127;28;20034;-79
2023/04/15 05:45:55;;;;;;;5.30;2.20;;;5.40;99.90;;;;;;5103918;28;20020;-79
2023/04/15 05:48:20;;;;;;;6.67;2.37;;;5.40;99.90;;;;;;5104293;28;20031;-80
2023/04/15 05:50:46;;;;;;;7.37;2.23;;;5.50;99.90;;;;;;5105083;28;20024;-80
2023/04/15 05:53:12;;;;;;;7.37;2.00;;;5.50;99.90;;;;;;5103878;28;20077;-80
2023/04/15 05:55:37;;;;;;;11.03;2.93;;;5.50;99.90;;;;;;5102369;28;20100;-80
2023/04/15 05:58:03;;;;;;;6.20;2.30;;;5.60;99.90;;;;;;5105245;28;20027;-79
2023/04/15 06:00:28;;;;;;;12.60;2.60;;;5.70;99.90;;;;;;5101827;28;20527;-79
2023/04/15 06:02:55;;;;;;;7.07;2.30;;;5.70;99.90;;;;;;5103679;28;20040;-80
2023/04/15 06:05:21;;;;;;;6.80;2.43;;;5.70;99.90;;;;;;5102744;28;20080;-80
2023/04/15 06:07:47;;;;;;;5.47;2.17;;;5.70;99.90;;;;;;5103145;28;20031;-80
2023/04/15 06:10:12;;;;;;;5.33;1.97;;;5.70;99.90;;;;;;5101172;28;20034;-80
2023/04/15 06:12:38;;;;;;;7.30;2.00;;;5.80;99.90;;;;;;5099083;28;20035;-80
2023/04/15 06:15:05;;;;;;;7.83;2.27;;;5.80;99.90;;;;;;5101335;28;20040;-80
2023/04/15 06:17:31;;;;;;;4.57;1.93;;;5.90;99.90;;;;;;5098092;28;20048;-70
2023/04/15 06:19:56;;;;;;;7.37;2.43;;;5.90;99.90;;;;;;5098409;28;20094;-79
2023/04/15 06:22:22;;;;;;;7.50;2.00;;;5.90;99.90;;;;;;5100789;28;20051;-79
2023/04/15 06:24:51;;;;;;;4.83;2.30;;;6.00;99.90;;;;;;5091842;28;20020;-83
2023/04/15 06:27:17;;;;;;;7.97;2.10;;;6.00;99.90;;;;;;5102604;28;20027;-80
2023/04/15 06:29:43;;;;;;;6.07;2.30;;;6.00;99.90;;;;;;5102706;28;20095;-80
2023/04/15 06:32:09;;;;;;;3.67;1.87;;;6.10;99.90;;;;;;5103572;28;20031;-80
2023/04/15 06:34:35;;;;;;;4.30;2.10;;;6.20;99.90;;;;;;5104207;28;21065;-80
2023/04/15 06:37:00;;;;;;;6.73;2.83;;;6.20;99.90;;;;;;5103539;28;20019;-80
2023/04/15 06:39:26;;;;;;;4.60;1.70;;;6.30;99.90;;;;;;5102009;28;20028;-80
2023/04/15 06:41:52;;;;;;;7.53;2.30;;;6.30;99.90;;;;;;5103967;28;20497;-80
2023/04/15 06:44:18;;;;;;;5.07;2.00;;;6.30;99.90;;;;;;5104006;28;20101;-80
2023/04/15 06:46:43;;;;;;;3.77;1.80;;;6.30;99.90;;;;;;5105099;28;20112;-80
2023/04/15 06:49:10;;;;;;;3.90;2.00;;;6.30;99.90;;;;;;5105250;28;20024;-80
2023/04/15 06:51:36;;;;;;;5.53;2.03;;;6.40;99.90;;;;;;5105619;28;20031;-80
2023/04/15 06:54:04;;;;;;;5.53;1.83;;;6.50;99.90;;;;;;5105431;28;20035;-80
2023/04/15 06:56:31;;;;;;;4.60;2.20;;;6.50;99.90;;;;;;5104512;28;20027;-80
2023/04/15 06:58:56;;;;;;;10.30;2.13;;;6.50;99.90;;;;;;5104790;28;20036;-81
2023/04/15 07:01:22;;;;;;;7.30;2.10;;;6.60;99.90;;;;;;5098828;28;20048;-81
2023/04/15 07:03:47;;;;;;;3.83;1.80;;;6.60;99.90;;;;;;5094443;28;20035;-81
2023/04/15 07:06:13;;;;;;;7.83;2.30;;;6.70;99.90;;;;;;5091754;28;20387;-81
2023/04/15 07:08:39;;;;;;;5.07;1.93;;;6.70;99.90;;;;;;5096116;28;20090;-80
2023/04/15 07:11:05;;;;;;;10.90;2.27;;;6.80;99.90;;;;;;5096721;28;20028;-80
2023/04/15 07:13:31;;;;;;;4.67;1.70;;;6.80;99.90;;;;;;5097506;28;20056;-81
2023/04/15 07:15:56;;;;;;;5.60;1.80;;;6.80;99.90;;;;;;5097259;28;20088;-81
2023/04/15 07:18:24;;;;;;;3.70;2.33;;;6.90;99.90;;;;;;5097716;28;20084;-80
2023/04/15 07:20:50;;;;;;;6.67;1.87;;;7.00;99.90;;;;;;5094258;28;20023;-81
2023/04/15 07:23:16;;;;;;;5.17;1.67;;;7.10;99.90;;;;;;5093276;28;20020;-80
2023/04/15 07:25:41;;;;;;;6.50;2.27;;;7.10;99.90;;;;;;5098131;28;20110;-81
2023/04/15 07:28:07;;;;;;;3.27;1.80;;;7.20;99.90;;;;;;5099544;28;20031;-81
2023/04/15 07:30:33;;;;;;;6.60;2.80;;;7.40;99.90;;;;;;5098079;28;20036;-81
2023/04/15 07:32:59;;;;;;;5.63;2.27;;;7.50;99.90;;;;;;5099738;28;20023;-80
2023/04/15 07:35:25;;;;;;;5.87;2.40;;;7.60;99.90;;;;;;5100725;28;20027;-81
2023/04/15 07:37:51;;;;;;;5.60;2.00;;;7.70;99.90;;;;;;5099120;28;20221;-81
2023/04/15 07:40:17;;;;;;;10.67;2.03;;;7.90;99.90;;;;;;5098280;28;20047;-81
2023/04/15 07:42:43;;;;;;;7.13;2.00;;;8.00;99.90;;;;;;5093990;28;20043;-79
2023/04/15 07:45:09;;;;;;;6.57;2.20;;;8.10;99.90;;;;;;5094448;28;20079;-81
2023/04/15 07:47:35;;;;;;;5.70;2.10;;;8.20;99.90;;;;;;5100357;28;20035;-81
2023/04/15 07:50:01;;;;;;;5.97;2.47;;;8.20;99.90;;;;;;5097713;28;20020;-81
2023/04/15 07:52:27;;;;;;;6.80;1.97;;;8.30;99.90;;;;;;5096527;28;20032;-81
2023/04/15 07:54:52;;;;;;;8.43;2.17;;;8.50;99.90;;;;;;5096674;28;20032;-81
2023/04/15 07:57:18;;;;;;;4.43;2.00;;;8.70;99.90;;;;;;5098413;28;20028;-81
2023/04/15 07:59:44;;;;;;;5.93;2.10;;;8.80;99.90;;;;;;5096772;28;20028;-82
2023/04/15 08:02:10;;;;;;;15.97;5.70;;;8.90;99.90;;;;;;5100812;28;20078;-81
2023/04/15 08:04:36;;;;;;;6.23;2.03;;;9.00;99.90;;;;;;5088822;28;20080;-81
2023/04/15 08:07:03;;;;;;;6.03;2.10;;;9.20;99.90;;;;;;5090192;28;20051;-81
2023/04/15 08:09:29;;;;;;;5.63;2.10;;;9.30;99.90;;;;;;5091279;28;20425;-81
2023/04/15 08:11:55;;;;;;;4.23;2.07;;;9.40;99.90;;;;;;5091108;28;20024;-81
2023/04/15 08:14:21;;;;;;;4.20;1.90;;;9.40;99.90;;;;;;5089503;28;20039;-81
2023/04/15 08:16:47;;;;;;;8.33;2.57;;;9.40;99.90;;;;;;5089300;28;20016;-81
2023/04/15 08:19:12;;;;;;;7.27;2.03;;;9.30;99.90;;;;;;5087618;28;20060;-81
2023/04/15 08:21:38;;;;;;;5.40;2.30;;;9.20;99.90;;;;;;5089151;28;20045;-80
2023/04/15 08:24:04;;;;;;;5.53;1.90;;;9.40;99.90;;;;;;5086316;28;20032;-81
2023/04/15 08:26:30;;;;;;;6.33;2.23;;;9.40;99.90;;;;;;5089192;28;20031;-81
2023/04/15 08:28:56;;;;;;;7.30;2.20;;;9.40;99.90;;;;;;5089560;28;20109;-81
2023/04/15 08:31:21;;;;;;;7.90;2.10;;;9.50;99.90;;;;;;5089202;28;20044;-81
2023/04/15 08:33:47;;;;;;;6.93;2.00;;;9.60;99.90;;;;;;5089141;28;20028;-81
2023/04/15 08:36:13;;;;;;;6.93;2.00;;;9.80;99.90;;;;;;5095454;28;20692;-82
2023/04/15 08:38:41;;;;;;;4.50;2.20;;;9.90;99.90;;;;;;5094465;28;20476;-79
2023/04/15 08:41:24;;;;;;;5.37;2.00;;;9.90;99.90;;;;;;5088906;28;20040;-81
2023/04/15 08:43:54;;;;;;;6.90;2.20;;;10.10;99.90;;;;;;5089893;28;20027;-80
2023/04/15 08:46:20;;;;;;;6.07;2.33;;;10.20;99.90;;;;;;5088868;28;20031;-81
2023/04/15 08:48:48;;;;;;;3.63;1.97;;;10.20;99.90;;;;;;5086122;28;20026;-80
2023/04/15 08:51:15;;;;;;;4.30;2.00;;;10.20;99.90;;;;;;5083955;28;20052;-80
2023/04/15 08:53:42;;;;;;;6.63;2.50;;;10.20;99.90;;;;;;5082232;28;20803;-80
2023/04/15 08:56:11;;;;;;;5.83;2.10;;;10.00;99.90;;;;;;5063241;28;20036;-81
2023/04/15 08:58:37;;;;;;;3.73;2.10;;;10.00;99.90;;;;;;5083112;28;20063;-81
2023/04/15 09:01:02;;;;;;;5.07;1.90;;;10.00;99.90;;;;;;5093123;28;20058;-81
2023/04/15 09:03:28;;;;;;;5.07;2.37;;;9.90;99.90;;;;;;5093710;28;20032;-81
2023/04/15 09:05:56;;;;;;;4.60;2.30;;;9.80;99.90;;;;;;5094032;28;20036;-80
2023/04/15 09:08:21;;;;;;;6.00;2.40;;;9.60;99.90;;;;;;5094825;28;20661;-80
2023/04/15 09:10:47;;;;;;;6.53;2.37;;;9.60;99.90;;;;;;5096099;28;20140;-81
2023/04/15 09:13:13;;;;;;;6.40;2.70;;;9.60;99.90;;;;;;5097242;28;20168;-81
2023/04/15 09:15:38;;;;;;;7.33;2.83;;;9.60;99.90;;;;;;5100003;28;20051;-81
2023/04/15 09:18:05;;;;;;;4.53;2.50;;;9.60;99.90;;;;;;5098411;28;20047;-81
2023/04/15 09:20:41;;;;;;;4.53;2.23;;;9.60;99.90;;;;;;5097455;28;20100;-81
2023/04/15 09:23:13;;;;;;;5.37;2.50;;;9.60;99.90;;;;;;5093598;28;20043;-72
2023/04/15 09:25:43;;;;;;;5.63;2.57;;;9.70;99.90;;;;;;5098620;28;20020;-80
2023/04/15 09:28:09;;;;;;;6.67;3.10;;;9.70;99.90;;;;;;5100649;28;20032;-81
2023/04/15 09:30:35;;;;;;;5.93;2.60;;;9.70;99.90;;;;;;5098217;28;20012;-80
2023/04/15 09:33:03;;;;;;;5.77;3.10;;;9.70;99.90;;;;;;5099874;28;20105;-81
2023/04/15 09:35:29;;;;;;;6.43;2.40;;;9.80;99.90;;;;;;5100482;28;20120;-81
2023/04/15 09:38:08;;;;;;;6.23;2.50;;;9.90;99.90;;;;;;5091638;28;20147;-80
2023/04/15 09:40:36;;;;;;;4.97;2.70;;;9.90;99.90;;;;;;5094341;28;21180;-81
2023/04/15 09:43:03;;;;;;;7.17;2.50;;;10.00;99.90;;;;;;5093601;28;20040;-81
2023/04/15 09:45:30;;;;;;;4.82;2.60;;;10.10;99.90;;;;;;5096266;28;20020;-81
2023/04/15 09:48:19;;;;;;;5.17;2.63;;;10.20;99.90;;;;;;5096947;28;20035;-81
2023/04/15 09:50:47;;;;;;;4.73;2.43;;;10.40;99.90;;;;;;5078734;28;20043;-81
2023/04/15 09:53:21;;;;;;;8.17;3.20;;;10.50;99.90;;;;;;5096978;28;20024;-81
2023/04/15 09:55:51;;;;;;;5.73;2.47;;;10.50;99.90;;;;;;5097968;28;20028;-81
2023/04/15 09:58:55;;;;;;;6.82;2.85;;;10.40;99.90;;;;;;5098266;28;20046;-81
2023/04/15 10:01:20;;;;;;;6.97;2.88;;;10.30;99.90;;;;;;5087859;28;20036;-81
2023/04/15 10:03:46;;;;;;;6.65;2.88;;;10.30;99.90;;;;;;5097581;28;20024;-80
2023/04/15 10:06:13;;;;;;;5.72;2.70;;;10.40;99.90;;;;;;5099132;28;20043;-80
2023/04/15 10:08:40;;;;;;;7.40;2.97;;;10.30;99.90;;;;;;5078351;28;20799;-75
2023/04/15 10:11:06;;;;;;;6.57;2.72;;;10.30;99.90;;;;;;5105437;28;20028;-81
2023/04/15 10:13:33;;;;;;;6.57;3.05;;;10.30;99.90;;;;;;5105060;28;20031;-81
2023/04/15 10:16:10;;;;;;;5.25;2.80;;;10.30;99.90;;;;;;5107242;28;20027;-82
2023/04/15 10:18:40;;;;;;;7.70;2.90;;;10.20;99.90;;;;;;5106574;28;20061;-81
2023/04/15 10:21:07;;;;;;;4.67;2.97;;;10.40;99.90;;;;;;5106657;28;20030;-81
2023/04/15 10:23:33;;;;;;;9.30;3.10;;;10.40;99.90;;;;;;5105444;28;20077;-81
2023/04/15 10:25:59;;;;;;;5.17;2.80;;;10.40;99.90;;;;;;5105511;28;20028;-81
2023/04/15 10:28:25;;;;;;;6.38;3.33;;;10.40;99.90;;;;;;5104924;28;20024;-81
2023/04/15 10:30:52;;;;;;;6.65;3.10;;;10.50;99.90;;;;;;5086989;28;20022;-82
2023/04/15 10:33:21;;;;;;;7.35;3.42;;;10.50;99.90;;;;;;5109206;28;20027;-81
2023/04/15 10:35:50;;;;;;;7.93;3.28;;;10.60;99.90;;;;;;5108936;28;20015;-81
2023/04/15 10:38:34;;;;;;;5.20;3.15;;;10.70;99.90;;;;;;5106320;28;20458;-82
2023/04/15 10:41:17;;;;;;;7.40;3.60;;;10.70;99.90;;;;;;5105143;28;20028;-80
2023/04/15 10:43:51;;;;;;;6.85;3.63;;;10.80;99.90;;;;;;5104378;28;20115;-80
2023/04/15 10:46:41;;;;;;;6.28;3.78;;;11.00;99.90;;;;;;5106113;28;20026;-80
2023/04/15 10:49:09;;;;;;;6.35;3.50;;;11.10;99.90;;;;;;5106982;28;21678;-81
2023/04/15 10:51:40;;;;;;;6.90;3.47;;;11.20;99.90;;;;;;5108192;28;20137;-81
2023/04/15 10:54:12;;;;;;;6.97;3.13;;;11.20;99.90;;;;;;5107953;28;20054;-81
2023/04/15 10:56:40;;;;;;;9.32;3.85;;;11.30;99.90;;;;;;5107148;28;20047;-80
2023/04/15 10:59:06;;;;;;;6.88;3.50;;;11.40;99.90;;;;;;5106953;28;20024;-81
2023/04/15 11:01:53;;;;;;;7.68;4.43;;;11.50;99.90;;;;;;5106292;28;20058;-81
2023/04/15 11:04:51;;;;;;;9.90;3.97;;;11.40;99.90;;;;;;5107416;28;20023;-82
2023/04/15 11:07:39;;;;;;;10.02;3.47;;;11.40;99.90;;;;;;5099766;28;20028;-81
2023/04/15 11:10:17;;;;;;;5.55;3.25;;;11.40;99.90;;;;;;5101778;28;20043;-81
2023/04/15 11:12:44;;;;;;;5.88;3.33;;;11.40;99.90;;;;;;5101335;28;20063;-80
2023/04/15 11:15:33;;;;;;;7.63;3.58;;;11.30;99.90;;;;;;5101299;28;20024;-79
2023/04/15 11:18:26;;;;;;;5.45;3.45;;;11.10;99.90;;;;;;5103118;28;20031;-80
2023/04/15 11:20:56;;;;;;;8.40;3.63;;;10.90;99.90;;;;;;5099881;28;20055;-79
2023/04/15 11:23:33;;;;;;;6.75;3.58;;;10.70;99.90;;;;;;5102241;28;20120;-80
2023/04/15 11:26:01;;;;;;;6.43;3.67;;;10.50;99.90;;;;;;5102085;28;20026;-79
2023/04/15 11:28:28;;;;;;;7.18;3.75;;;10.40;99.90;;;;;;5103750;28;20083;-79
2023/04/15 11:30:54;;;;;;;5.13;3.60;;;10.20;99.90;;;;;;5101308;28;20024;-79
2023/04/15 11:33:21;;;;;;;7.00;3.67;;;10.20;99.90;;;;;;5101959;28;20096;-80
2023/04/15 11:35:47;;;;;;;7.70;4.00;;;10.00;99.90;;;;;;5100878;28;20023;-79
2023/04/15 11:38:14;;;;;;;7.00;3.70;;;9.90;99.90;;;;;;5102824;28;20025;-80
2023/04/15 11:40:41;;;;;;;7.83;3.87;;;9.80;99.90;;;;;;5100162;28;20057;-80
2023/04/15 11:43:08;;;;;;;7.27;4.67;;;9.70;99.90;;;;;;5102136;28;20070;-80
2023/04/15 11:45:35;;;;;;;10.23;4.50;;;9.60;99.90;;;;;;5101787;28;20028;-80
2023/04/15 11:48:12;;;;;;;7.77;3.70;;;9.50;99.90;;;;;;5102426;28;20043;-81
2023/04/15 11:50:41;;;;;;;8.50;4.03;;;9.40;99.90;;;;;;5101201;28;20040;-81
2023/04/15 11:53:09;;;;;;;10.43;4.03;;;9.30;99.90;;;;;;5102601;28;20024;-80
2023/04/15 11:55:45;;;;;;;5.77;3.60;;;9.30;99.90;;;;;;5102687;28;20024;-80
2023/04/15 11:58:14;;;;;;;6.43;4.23;;;9.30;99.90;;;;;;5103721;28;21617;-80
2023/04/15 12:00:40;;;;;;;8.63;4.70;;;9.20;99.90;;;;;;5101726;28;20044;-81
2023/04/15 12:03:36;;;;;;;10.57;4.63;;;9.20;99.90;;;;;;5102505;28;20058;-80
2023/04/15 12:06:05;;;;;;;8.20;4.65;;;9.30;99.90;;;;;;5091198;28;20081;-80
2023/04/15 12:08:59;;;;;;;9.50;4.50;;;9.30;99.90;;;;;;5099213;28;20137;-80
2023/04/15 12:11:25;;;;;;;6.90;4.60;;;9.40;99.90;;;;;;5104967;28;20028;-81
2023/04/15 12:13:54;;;;;;;7.00;4.10;;;9.40;99.90;;;;;;5105787;28;21202;-80
2023/04/15 12:16:20;;;;;;;8.53;4.90;;;9.50;99.90;;;;;;5104956;28;20034;-80
2023/04/15 12:18:49;;;;;;;11.53;4.37;;;9.60;99.90;;;;;;5083427;28;20040;-81
2023/04/15 12:21:17;;;;;;;8.53;4.53;;;9.70;99.90;;;;;;5101246;28;20044;-80
2023/04/15 12:23:54;;;;;;;6.60;4.20;;;9.80;99.90;;;;;;5102808;28;20024;-80
2023/04/15 12:26:28;;;;;;;10.90;5.00;;;9.90;99.90;;;;;;5102132;28;20028;-80
2023/04/15 12:29:06;;;;;;;6.20;3.63;;;10.10;99.90;;;;;;5099706;28;20027;-80
2023/04/15 12:31:32;;;;;;;7.67;3.70;;;10.10;99.90;;;;;;5099101;28;20042;-85
2023/04/15 12:33:59;;;;;;;7.30;3.20;;;10.20;99.90;;;;;;5099761;28;20027;-86
2023/04/15 12:36:25;;;;;;;7.47;3.00;;;10.30;99.90;;;;;;5082614;28;20034;-85
2023/04/15 12:38:51;;;;;;;7.00;2.73;;;10.30;99.90;;;;;;5099728;28;20020;-85
2023/04/15 12:41:16;;;;;;;6.43;2.30;;;10.30;99.90;;;;;;5097667;28;20020;-84
2023/04/15 12:43:44;;;;;;;5.30;2.63;;;10.30;99.90;;;;;;5095543;28;20115;-85
2023/04/15 12:46:10;;;;;;;6.57;3.07;;;10.20;99.90;;;;;;5093207;28;20038;-86
2023/04/15 12:48:35;;;;;;;4.73;2.90;;;10.20;99.90;;;;;;5103147;28;20787;-84
2023/04/15 12:51:01;;;;;;;5.93;3.10;;;10.10;99.90;;;;;;5107510;28;20028;-85
2023/04/15 12:53:27;;;;;;;10.67;5.27;;;10.10;99.90;;;;;;5107781;28;20051;-85